createdAt,value
2022-11-14T00:00:11.337Z,5.07
2022-11-14T00:01:11.171Z,5.05
2022-11-14T00:02:11.159Z,5.02
2022-11-14T00:03:11.202Z,5.07
2022-11-14T00:04:11.130Z,5.07
2022-11-14T00:05:11.115Z,5.04
2022-11-14T00:06:11.125Z,5.02
2022-11-14T00:07:11.139Z,4.93
2022-11-14T00:08:11.085Z,4.96
2022-11-14T00:09:11.076Z,4.96
2022-11-14T00:10:11.067Z,4.99
2022-11-14T00:11:11.072Z,4.89
2022-11-14T00:12:11.036Z,4.74
2022-11-14T00:13:11.025Z,4.71
2022-11-14T00:14:11.014Z,4.78
2022-11-14T00:15:11.005Z,4.82
2022-11-14T00:16:11.033Z,4.86
2022-11-14T00:17:11.005Z,4.90
2022-11-14T00:18:10.973Z,4.90
2022-11-14T00:19:10.954Z,4.92
2022-11-14T00:20:10.952Z,4.90
2022-11-14T00:21:10.952Z,4.80
2022-11-14T00:22:10.923Z,4.75
2022-11-14T00:23:10.934Z,4.73
2022-11-14T00:24:10.906Z,4.73
2022-11-14T00:25:10.896Z,4.70
2022-11-14T00:26:10.879Z,4.74
2022-11-14T00:27:10.882Z,4.75
2022-11-14T00:28:10.856Z,4.73
2022-11-14T00:29:10.867Z,4.63
2022-11-14T00:30:10.843Z,4.63
2022-11-14T00:31:10.821Z,4.63
2022-11-14T00:32:10.813Z,4.59
2022-11-14T00:33:12.038Z,4.55
2022-11-14T00:34:10.792Z,4.53
2022-11-14T00:35:10.825Z,4.48
2022-11-14T00:36:10.773Z,4.45
2022-11-14T00:37:10.754Z,4.42
2022-11-14T00:38:10.752Z,4.42
2022-11-14T00:39:10.732Z,4.49
2022-11-14T00:40:10.722Z,4.45
2022-11-14T00:41:10.730Z,4.49
2022-11-14T00:42:10.701Z,4.48
2022-11-14T00:43:10.693Z,4.44
2022-11-14T00:44:10.679Z,4.40
2022-11-14T00:45:10.669Z,4.37
2022-11-14T00:46:10.661Z,4.38
2022-11-14T00:47:10.650Z,4.40
2022-11-14T00:48:10.630Z,4.38
2022-11-14T00:49:10.620Z,4.38
2022-11-14T00:50:10.610Z,4.38
2022-11-14T00:51:10.598Z,4.35
2022-11-14T00:52:10.611Z,4.38
2022-11-14T00:53:10.571Z,4.42
2022-11-14T00:54:10.696Z,4.48
2022-11-14T00:55:10.977Z,4.44
2022-11-14T00:56:10.549Z,4.48
2022-11-14T00:57:10.534Z,4.48
2022-11-14T00:58:10.540Z,4.48
2022-11-14T00:59:10.508Z,4.56
2022-11-14T01:00:10.505Z,4.55
2022-11-14T01:01:10.526Z,4.53
2022-11-14T01:02:10.469Z,4.53
2022-11-14T01:03:10.458Z,4.53
2022-11-14T01:04:13.548Z,4.49
2022-11-14T01:05:10.453Z,4.48
2022-11-14T01:06:10.430Z,4.52
2022-11-14T01:07:10.417Z,4.59
2022-11-14T01:08:10.408Z,4.60
2022-11-14T01:09:10.448Z,4.59
2022-11-14T01:10:10.412Z,4.59
2022-11-14T01:11:10.368Z,4.55
2022-11-14T01:12:10.359Z,4.55
2022-11-14T01:13:10.348Z,4.50
2022-11-14T01:14:10.354Z,4.55
2022-11-14T01:15:10.327Z,4.56
2022-11-14T01:16:10.337Z,4.60
2022-11-14T01:17:10.297Z,4.56
2022-11-14T01:18:10.298Z,4.53
2022-11-14T01:19:10.279Z,4.52
2022-11-14T01:20:10.282Z,4.45
2022-11-14T01:21:10.257Z,4.48
2022-11-14T01:22:10.267Z,4.49
2022-11-14T01:23:10.236Z,4.45
2022-11-14T01:24:10.226Z,4.48
2022-11-14T01:25:10.217Z,4.38
2022-11-14T01:26:10.206Z,4.40
2022-11-14T01:27:10.217Z,4.41
2022-11-14T01:28:10.186Z,4.41
2022-11-14T01:29:10.165Z,4.49
2022-11-14T01:30:10.156Z,4.42
2022-11-14T01:31:10.146Z,4.42
2022-11-14T01:32:10.136Z,4.48
2022-11-14T01:33:10.145Z,4.45
2022-11-14T01:34:10.115Z,4.45
2022-11-14T01:35:10.097Z,4.42
2022-11-14T01:36:10.096Z,4.41
2022-11-14T01:37:10.075Z,4.40
2022-11-14T01:38:10.073Z,4.35
2022-11-14T01:39:10.106Z,4.28
2022-11-14T01:40:10.045Z,4.26
2022-11-14T01:41:10.035Z,4.32
2022-11-14T01:42:10.035Z,4.32
2022-11-14T01:43:10.016Z,4.30
2022-11-14T01:44:10.004Z,4.26
2022-11-14T01:45:10.005Z,4.26
2022-11-14T01:46:09.986Z,4.31
2022-11-14T01:47:09.976Z,4.32
2022-11-14T01:48:09.965Z,4.34
2022-11-14T01:49:09.944Z,4.32
2022-11-14T01:50:09.937Z,4.23
2022-11-14T01:51:09.946Z,4.20
2022-11-14T01:52:09.913Z,4.16
2022-11-14T01:53:09.905Z,4.14
2022-11-14T01:54:09.900Z,4.13
2022-11-14T01:55:09.900Z,4.06
2022-11-14T01:56:09.908Z,3.99
2022-11-14T01:57:09.853Z,4.06
2022-11-14T01:58:09.844Z,4.04
2022-11-14T01:59:09.832Z,4.02
2022-11-14T02:00:09.825Z,4.10
2022-11-14T02:01:09.875Z,4.20
2022-11-14T02:02:09.823Z,4.30
2022-11-14T02:03:09.783Z,4.24
2022-11-14T02:04:14.149Z,4.20
2022-11-14T02:05:10.764Z,4.24
2022-11-14T02:06:09.752Z,4.26
2022-11-14T02:07:09.768Z,4.26
2022-11-14T02:08:09.764Z,4.17
2022-11-14T02:09:09.722Z,4.14
2022-11-14T02:10:09.711Z,4.17
2022-11-14T02:11:09.693Z,4.19
2022-11-14T02:12:09.690Z,4.19
2022-11-14T02:13:09.671Z,4.16
2022-11-14T02:14:09.692Z,4.08
2022-11-14T02:15:09.652Z,4.12
2022-11-14T02:16:09.641Z,4.14
2022-11-14T02:17:29.068Z,4.13
2022-11-14T02:18:10.624Z,4.05
2022-11-14T02:19:09.602Z,4.05
2022-11-14T02:20:09.610Z,4.02
2022-11-14T02:21:09.580Z,4.05
2022-11-14T02:22:09.571Z,4.06
2022-11-14T02:23:09.562Z,4.02
2022-11-14T02:24:09.553Z,4.06
2022-11-14T02:25:13.873Z,4.08
2022-11-14T02:26:09.532Z,4.10
2022-11-14T02:27:09.521Z,4.13
2022-11-14T02:28:09.510Z,4.10
2022-11-14T02:29:09.491Z,4.06
2022-11-14T02:30:09.490Z,4.01
2022-11-14T02:31:09.499Z,4.05
2022-11-14T02:32:10.865Z,4.06
2022-11-14T02:33:10.981Z,4.04
2022-11-14T02:34:09.440Z,4.08
2022-11-14T02:35:09.430Z,4.10
2022-11-14T02:36:09.420Z,4.05
2022-11-14T02:37:09.420Z,4.08
2022-11-14T02:38:09.399Z,4.01
2022-11-14T02:39:09.381Z,3.94
2022-11-14T02:40:16.755Z,3.98
2022-11-14T02:41:09.362Z,4.04
2022-11-14T02:42:09.354Z,3.96
2022-11-14T02:43:09.361Z,3.95
2022-11-14T02:44:09.334Z,3.98
2022-11-14T02:45:09.329Z,4.02
2022-11-14T02:46:09.303Z,4.04
2022-11-14T02:47:09.295Z,3.99
2022-11-14T02:48:09.304Z,3.98
2022-11-14T02:49:09.276Z,3.94
2022-11-14T02:50:09.262Z,3.92
2022-11-14T02:51:09.253Z,3.92
2022-11-14T02:52:09.242Z,4.01
2022-11-14T02:53:09.233Z,4.05
2022-11-14T02:54:09.282Z,4.13
2022-11-14T02:55:09.203Z,4.08
2022-11-14T02:56:09.195Z,4.06
2022-11-14T02:57:09.182Z,4.06
2022-11-14T02:58:09.162Z,4.04
2022-11-14T02:59:09.163Z,3.98
2022-11-14T03:00:14.557Z,3.99
2022-11-14T03:01:20.875Z,4.04
2022-11-14T03:02:10.192Z,4.02
2022-11-14T03:03:09.116Z,4.01
2022-11-14T03:04:09.100Z,3.92
2022-11-14T03:05:09.103Z,3.95
2022-11-14T03:06:09.107Z,3.96
2022-11-14T03:07:09.134Z,3.96
2022-11-14T03:08:09.056Z,3.94
2022-11-14T03:09:09.052Z,3.78
2022-11-14T03:10:09.032Z,3.77
2022-11-14T03:11:09.041Z,3.80
2022-11-14T03:12:09.012Z,3.83
2022-11-14T03:13:08.999Z,3.80
2022-11-14T03:14:08.994Z,3.77
2022-11-14T03:15:08.980Z,3.73
2022-11-14T03:16:08.969Z,3.69
2022-11-14T03:17:08.979Z,3.68
2022-11-14T03:18:08.949Z,3.70
2022-11-14T03:19:08.945Z,3.65
2022-11-14T03:20:08.919Z,3.66
2022-11-14T03:21:08.909Z,3.62
2022-11-14T03:22:08.901Z,3.66
2022-11-14T03:23:08.911Z,3.65
2022-11-14T03:24:08.877Z,3.63
2022-11-14T03:25:08.874Z,3.60
2022-11-14T03:26:08.867Z,3.56
2022-11-14T03:27:08.850Z,3.56
2022-11-14T03:28:08.829Z,3.51
2022-11-14T03:29:08.850Z,3.53
2022-11-14T03:30:08.808Z,3.56
2022-11-14T03:31:08.799Z,3.63
2022-11-14T03:32:08.787Z,3.56
2022-11-14T03:33:08.777Z,3.56
2022-11-14T03:34:08.760Z,3.56
2022-11-14T03:35:08.778Z,3.56
2022-11-14T03:36:08.746Z,3.59
2022-11-14T03:37:08.734Z,3.59
2022-11-14T03:38:08.720Z,3.66
2022-11-14T03:39:08.708Z,3.65
2022-11-14T03:40:08.698Z,3.70
2022-11-14T03:41:08.707Z,3.76
2022-11-14T03:42:08.677Z,3.77
2022-11-14T03:43:08.668Z,3.77
2022-11-14T03:44:08.649Z,3.73
2022-11-14T03:45:08.645Z,3.77
2022-11-14T03:46:08.629Z,3.76
2022-11-14T03:47:08.637Z,3.73
2022-11-14T03:48:08.608Z,3.74
2022-11-14T03:49:08.598Z,3.73
2022-11-14T03:50:08.591Z,3.73
2022-11-14T03:51:08.585Z,3.73
2022-11-14T03:52:08.595Z,3.76
2022-11-14T03:53:08.557Z,3.73
2022-11-14T03:54:08.537Z,3.70
2022-11-14T03:55:08.528Z,3.68
2022-11-14T03:56:08.515Z,3.68
2022-11-14T03:57:08.506Z,3.62
2022-11-14T03:58:08.517Z,3.59
2022-11-14T03:59:08.485Z,3.53
2022-11-14T04:00:08.483Z,3.47
2022-11-14T04:01:08.546Z,3.40
2022-11-14T04:02:08.454Z,3.32
2022-11-14T04:03:08.444Z,3.29
2022-11-14T04:04:08.437Z,3.25
2022-11-14T04:05:08.426Z,3.25
2022-11-14T04:06:08.406Z,3.22
2022-11-14T04:07:08.461Z,3.18
2022-11-14T04:08:08.391Z,3.13
2022-11-14T04:09:08.374Z,3.16
2022-11-14T04:10:08.386Z,3.18
2022-11-14T04:11:08.349Z,3.14
2022-11-14T04:12:12.831Z,3.11
2022-11-14T04:13:09.324Z,3.07
2022-11-14T04:14:08.315Z,3.07
2022-11-14T04:15:08.305Z,3.05
2022-11-14T04:16:08.417Z,3.03
2022-11-14T04:17:08.284Z,3.01
2022-11-14T04:18:08.265Z,2.97
2022-11-14T04:19:08.263Z,2.95
2022-11-14T04:20:08.244Z,3.01
2022-11-14T04:21:08.261Z,3.05
2022-11-14T04:22:08.222Z,3.07
2022-11-14T04:23:08.214Z,3.07
2022-11-14T04:24:10.920Z,3.05
2022-11-14T04:25:08.197Z,3.07
2022-11-14T04:26:08.180Z,3.05
2022-11-14T04:27:08.182Z,3.05
2022-11-14T04:28:08.154Z,3.05
2022-11-14T04:29:08.144Z,3.05
2022-11-14T04:30:08.140Z,3.04
2022-11-14T04:31:08.123Z,3.01
2022-11-14T04:32:08.134Z,3.01
2022-11-14T04:33:08.104Z,3.00
2022-11-14T04:34:08.084Z,2.95
2022-11-14T04:35:08.082Z,2.90
2022-11-14T04:36:08.063Z,2.86
2022-11-14T04:37:08.053Z,2.82
2022-11-14T04:38:08.061Z,2.83
2022-11-14T04:39:08.054Z,2.82
2022-11-14T04:40:08.021Z,2.71
2022-11-14T04:41:08.011Z,2.75
2022-11-14T04:42:08.001Z,2.83
2022-11-14T04:43:08.012Z,2.83
2022-11-14T04:44:07.971Z,2.90
2022-11-14T04:45:08.063Z,2.98
2022-11-14T04:46:07.953Z,3.03
2022-11-14T04:47:07.943Z,2.98
2022-11-14T04:48:07.923Z,3.05
2022-11-14T04:49:07.940Z,3.16
2022-11-14T04:50:07.909Z,3.19
2022-11-14T04:51:07.898Z,3.25
2022-11-14T04:52:07.883Z,3.22
2022-11-14T04:53:07.872Z,3.23
2022-11-14T04:54:07.859Z,3.28
2022-11-14T04:55:07.868Z,3.26
2022-11-14T04:56:07.851Z,3.25
2022-11-14T04:57:07.829Z,3.19
2022-11-14T04:58:07.817Z,3.23
2022-11-14T04:59:07.808Z,3.26
2022-11-14T05:00:07.810Z,3.28
2022-11-14T05:01:07.837Z,3.29
2022-11-14T05:02:07.768Z,3.34
2022-11-14T05:03:07.758Z,3.31
2022-11-14T05:04:07.749Z,3.29
2022-11-14T05:05:07.751Z,3.26
2022-11-14T05:06:07.749Z,3.22
2022-11-14T05:07:07.756Z,3.16
2022-11-14T05:08:07.698Z,3.14
2022-11-14T05:09:07.706Z,3.11
2022-11-14T05:10:07.678Z,3.10
2022-11-14T05:11:07.669Z,3.08
2022-11-14T05:12:07.678Z,3.03
2022-11-14T05:13:07.647Z,2.98
2022-11-14T05:14:07.636Z,2.92
2022-11-14T05:15:07.628Z,2.90
2022-11-14T05:16:07.607Z,2.87
2022-11-14T05:17:07.609Z,2.87
2022-11-14T05:18:07.621Z,2.87
2022-11-14T05:19:07.667Z,2.83
2022-11-14T05:20:07.570Z,2.83
2022-11-14T05:21:07.557Z,2.80
2022-11-14T05:22:07.547Z,2.77
2022-11-14T05:23:07.553Z,2.72
2022-11-14T05:24:07.546Z,2.67
2022-11-14T05:25:07.520Z,2.64
2022-11-14T05:26:07.507Z,2.62
2022-11-14T05:27:07.486Z,2.57
2022-11-14T05:28:07.475Z,2.54
2022-11-14T05:29:07.486Z,2.56
2022-11-14T05:30:07.455Z,2.53
2022-11-14T05:31:07.467Z,2.57
2022-11-14T05:32:08.597Z,2.60
2022-11-14T05:33:07.425Z,2.57
2022-11-14T05:34:07.414Z,2.61
2022-11-14T05:35:07.416Z,2.57
2022-11-14T05:36:07.386Z,2.54
2022-11-14T05:37:07.377Z,2.54
2022-11-14T05:38:07.366Z,2.64
2022-11-14T05:39:07.357Z,2.72
2022-11-14T05:40:07.367Z,2.77
2022-11-14T05:41:07.338Z,2.85
2022-11-14T05:42:07.321Z,2.85
2022-11-14T05:43:07.314Z,2.83
2022-11-14T05:44:07.295Z,2.85
2022-11-14T05:45:07.295Z,2.89
2022-11-14T05:46:07.284Z,2.89
2022-11-14T05:47:07.263Z,2.90
2022-11-14T05:48:07.257Z,2.90
2022-11-14T05:49:07.244Z,2.87
2022-11-14T05:50:07.245Z,2.93
2022-11-14T05:51:07.243Z,2.93
2022-11-14T05:52:07.205Z,3.00
2022-11-14T05:53:07.203Z,3.07
2022-11-14T05:54:07.185Z,3.11
2022-11-14T05:55:07.173Z,3.21
2022-11-14T05:56:07.162Z,3.31
2022-11-14T05:57:07.173Z,3.34
2022-11-14T05:58:07.144Z,3.32
2022-11-14T05:59:07.133Z,3.29
2022-11-14T06:00:07.123Z,3.22
2022-11-14T06:01:07.114Z,3.13
2022-11-14T06:02:07.173Z,3.11
2022-11-14T06:03:07.089Z,3.10
2022-11-14T06:04:07.071Z,3.11
2022-11-14T06:05:07.076Z,3.18
2022-11-14T06:06:07.051Z,3.23
2022-11-14T06:07:07.077Z,3.23
2022-11-14T06:08:07.053Z,3.28
2022-11-14T06:09:07.024Z,3.28
2022-11-14T06:10:07.012Z,3.25
2022-11-14T06:11:06.995Z,3.25
2022-11-14T06:12:06.982Z,3.23
2022-11-14T06:13:06.972Z,3.25
2022-11-14T06:14:10.461Z,3.26
2022-11-14T06:15:06.951Z,3.31
2022-11-14T06:16:06.930Z,3.41
2022-11-14T06:17:06.929Z,3.47
2022-11-14T06:18:06.910Z,3.53
2022-11-14T06:19:06.900Z,3.56
2022-11-14T06:20:06.920Z,3.58
2022-11-14T06:21:06.891Z,3.59
2022-11-14T06:22:06.879Z,3.66
2022-11-14T06:23:06.860Z,3.70
2022-11-14T06:24:06.844Z,3.73
2022-11-14T06:25:06.840Z,3.76
2022-11-14T06:26:06.846Z,3.78
2022-11-14T06:27:06.819Z,3.80
2022-11-14T06:28:06.798Z,3.83
2022-11-14T06:29:06.810Z,3.86
2022-11-14T06:30:06.790Z,3.86
2022-11-14T06:31:06.785Z,3.92
2022-11-14T06:32:06.769Z,3.95
2022-11-14T06:33:06.740Z,3.98
2022-11-14T06:34:06.733Z,4.02
2022-11-14T06:35:06.719Z,4.08
2022-11-14T06:36:06.716Z,4.10
2022-11-14T06:37:06.719Z,4.16
2022-11-14T06:38:06.699Z,4.16
2022-11-14T06:39:06.722Z,4.17
2022-11-14T06:40:06.688Z,4.19
2022-11-14T06:41:06.703Z,4.23
2022-11-14T06:42:06.649Z,4.26
2022-11-14T06:43:06.661Z,4.31
2022-11-14T06:44:06.629Z,4.32
2022-11-14T06:45:06.618Z,4.30
2022-11-14T06:46:06.607Z,4.35
2022-11-14T06:47:06.588Z,4.41
2022-11-14T06:48:06.577Z,4.41
2022-11-14T06:49:06.588Z,4.45
2022-11-14T06:50:06.565Z,4.49
2022-11-14T06:51:06.555Z,4.52
2022-11-14T06:52:06.532Z,4.53
2022-11-14T06:53:06.550Z,4.53
2022-11-14T06:54:06.516Z,4.56
2022-11-14T06:55:06.642Z,4.53
2022-11-14T06:56:06.487Z,4.53
2022-11-14T06:57:06.478Z,4.55
2022-11-14T06:58:06.836Z,4.53
2022-11-14T06:59:06.475Z,4.58
2022-11-14T07:00:06.446Z,4.68
2022-11-14T07:01:06.447Z,4.68
2022-11-14T07:02:06.417Z,4.75
2022-11-14T07:03:06.444Z,4.82
2022-11-14T07:04:06.396Z,4.92
2022-11-14T07:05:06.386Z,4.96
2022-11-14T07:06:06.451Z,5.04
2022-11-14T07:07:06.399Z,5.05
2022-11-14T07:08:06.353Z,5.10
2022-11-14T07:09:06.347Z,5.14
2022-11-14T07:10:06.335Z,5.18
2022-11-14T07:11:06.323Z,5.21
2022-11-14T07:12:06.329Z,5.26
2022-11-14T07:13:06.295Z,5.28
2022-11-14T07:14:06.287Z,5.30
2022-11-14T07:15:06.266Z,5.36
2022-11-14T07:16:06.264Z,5.35
2022-11-14T07:17:06.246Z,5.39
2022-11-14T07:18:06.254Z,5.50
2022-11-14T07:19:06.234Z,5.48
2022-11-14T07:20:06.236Z,5.48
2022-11-14T07:21:06.205Z,5.51
2022-11-14T07:22:06.194Z,5.59
2022-11-14T07:23:06.205Z,5.57
2022-11-14T07:24:06.176Z,5.64
2022-11-14T07:25:06.154Z,5.69
2022-11-14T07:26:06.147Z,5.71
2022-11-14T07:27:06.134Z,5.73
2022-11-14T07:28:06.127Z,5.76
2022-11-14T07:29:06.134Z,5.73
2022-11-14T07:30:06.112Z,5.76
2022-11-14T07:31:06.634Z,5.82
2022-11-14T07:32:06.083Z,5.79
2022-11-14T07:33:06.074Z,5.83
2022-11-14T07:34:06.054Z,5.87
2022-11-14T07:35:06.063Z,5.93
2022-11-14T07:36:06.035Z,5.94
2022-11-14T07:37:06.021Z,5.98
2022-11-14T07:38:06.012Z,5.98
2022-11-14T07:39:05.992Z,6.02
2022-11-14T07:40:05.995Z,6.08
2022-11-14T07:41:06.004Z,6.09
2022-11-14T07:42:05.971Z,6.12
2022-11-14T07:43:05.952Z,6.17
2022-11-14T07:44:05.942Z,6.19
2022-11-14T07:45:05.930Z,6.30
2022-11-14T07:46:05.943Z,6.38
2022-11-14T07:47:05.902Z,6.39
2022-11-14T07:48:05.892Z,6.42
2022-11-14T07:49:05.881Z,6.45
2022-11-14T07:50:05.883Z,6.45
2022-11-14T07:51:05.863Z,6.54
2022-11-14T07:52:05.870Z,6.60
2022-11-14T07:53:05.840Z,6.63
2022-11-14T07:54:05.831Z,6.66
2022-11-14T07:55:05.822Z,6.74
2022-11-14T07:56:05.815Z,6.77
2022-11-14T07:57:05.806Z,6.78
2022-11-14T07:58:05.813Z,6.74
2022-11-14T07:59:05.771Z,6.75
2022-11-14T08:00:05.773Z,6.70
2022-11-14T08:01:05.779Z,6.70
2022-11-14T08:02:05.742Z,6.72
2022-11-14T08:03:05.722Z,6.70
2022-11-14T08:04:05.745Z,6.67
2022-11-14T08:05:05.701Z,6.69
2022-11-14T08:06:05.702Z,6.79
2022-11-14T08:07:05.761Z,6.93
2022-11-14T08:08:05.671Z,7.00
2022-11-14T08:09:05.676Z,7.03
2022-11-14T08:10:05.689Z,7.03
2022-11-14T08:11:05.658Z,7.06
2022-11-14T08:12:05.630Z,7.11
2022-11-14T08:13:30.407Z,7.18
2022-11-14T08:14:06.599Z,7.10
2022-11-14T08:15:05.591Z,7.17
2022-11-14T08:16:10.751Z,7.18
2022-11-14T08:17:06.594Z,7.14
2022-11-14T08:18:05.561Z,7.18
2022-11-14T08:19:05.551Z,7.25
2022-11-14T08:20:05.549Z,7.38
2022-11-14T08:21:05.520Z,7.32
2022-11-14T08:22:05.549Z,7.32
2022-11-14T08:23:05.507Z,7.24
2022-11-14T08:24:05.510Z,7.32
2022-11-14T08:25:05.479Z,7.33
2022-11-14T08:26:05.476Z,7.35
2022-11-14T08:27:05.458Z,7.42
2022-11-14T08:28:05.468Z,7.51
2022-11-14T08:29:05.438Z,7.56
2022-11-14T08:30:05.438Z,7.69
2022-11-14T08:31:05.420Z,7.70
2022-11-14T08:32:05.409Z,7.54
2022-11-14T08:33:05.418Z,7.63
2022-11-14T08:34:05.392Z,7.73
2022-11-14T08:35:05.380Z,7.77
2022-11-14T08:36:05.366Z,7.80
2022-11-14T08:37:05.347Z,7.88
2022-11-14T08:38:05.352Z,7.91
2022-11-14T08:39:05.348Z,7.97
2022-11-14T08:40:05.329Z,8.05
2022-11-14T08:41:05.308Z,8.06
2022-11-14T08:42:05.298Z,8.09
2022-11-14T08:43:05.288Z,8.12
2022-11-14T08:44:05.278Z,8.12
2022-11-14T08:45:05.279Z,8.05
2022-11-14T08:46:05.250Z,8.00
2022-11-14T08:47:05.238Z,8.05
2022-11-14T08:48:05.227Z,8.15
2022-11-14T08:49:05.206Z,8.16
2022-11-14T08:50:05.207Z,8.18
2022-11-14T08:51:05.205Z,8.10
2022-11-14T08:52:05.177Z,8.13
2022-11-14T08:53:05.167Z,8.19
2022-11-14T08:54:05.156Z,8.19
2022-11-14T08:55:05.147Z,8.28
2022-11-14T08:56:05.158Z,8.41
2022-11-14T08:57:05.116Z,8.53
2022-11-14T08:58:05.106Z,8.66
2022-11-14T08:59:05.087Z,8.67
2022-11-14T09:00:05.098Z,8.74
2022-11-14T09:01:05.068Z,8.78
2022-11-14T09:02:05.096Z,8.76
2022-11-14T09:03:05.081Z,8.79
2022-11-14T09:04:05.154Z,8.85
2022-11-14T09:05:05.026Z,8.88
2022-11-14T09:06:05.019Z,8.92
2022-11-14T09:07:05.074Z,8.91
2022-11-14T09:08:05.007Z,8.88
2022-11-14T09:09:04.974Z,8.82
2022-11-14T09:10:04.980Z,8.76
2022-11-14T09:11:06.044Z,8.79
2022-11-14T09:12:04.947Z,8.78
2022-11-14T09:13:04.948Z,8.81
2022-11-14T09:14:04.936Z,8.70
2022-11-14T09:15:04.907Z,8.61
2022-11-14T09:16:04.900Z,8.51
2022-11-14T09:17:06.222Z,8.51
2022-11-14T09:18:04.888Z,8.53
2022-11-14T09:19:04.886Z,8.56
2022-11-14T09:20:04.971Z,8.56
2022-11-14T09:21:04.839Z,8.58
2022-11-14T09:22:04.948Z,8.66
2022-11-14T09:23:04.823Z,8.56
2022-11-14T09:24:04.836Z,8.49
2022-11-14T09:25:04.798Z,8.51
2022-11-14T09:26:04.796Z,8.55
2022-11-14T09:27:04.774Z,8.53
2022-11-14T09:28:04.755Z,8.51
2022-11-14T09:29:04.795Z,8.52
2022-11-14T09:30:04.775Z,8.55
2022-11-14T09:31:04.724Z,8.60
2022-11-14T09:32:04.715Z,8.51
2022-11-14T09:33:10.104Z,8.46
2022-11-14T09:34:05.708Z,8.56
2022-11-14T09:35:04.684Z,8.60
2022-11-14T09:36:04.684Z,8.69
2022-11-14T09:37:04.653Z,8.76
2022-11-14T09:38:04.645Z,8.67
2022-11-14T09:39:04.626Z,8.70
2022-11-14T09:40:04.625Z,8.88
2022-11-14T09:41:04.655Z,9.04
2022-11-14T09:42:04.594Z,9.14
2022-11-14T09:43:04.585Z,9.18
2022-11-14T09:44:04.575Z,9.06
2022-11-14T09:45:04.556Z,9.08
2022-11-14T09:46:04.555Z,9.10
2022-11-14T09:47:04.554Z,9.03
2022-11-14T09:48:04.526Z,9.16
2022-11-14T09:49:04.508Z,9.22
2022-11-14T09:50:04.513Z,9.21
2022-11-14T09:51:04.494Z,9.21
2022-11-14T09:52:04.489Z,9.10
2022-11-14T09:53:04.485Z,9.19
2022-11-14T09:54:04.456Z,9.22
2022-11-14T09:55:04.442Z,9.34
2022-11-14T09:56:04.441Z,9.36
2022-11-14T09:57:04.436Z,9.48
2022-11-14T09:58:04.437Z,9.41
2022-11-14T09:59:04.852Z,9.26
2022-11-14T10:00:04.398Z,9.32
2022-11-14T10:01:09.139Z,9.46
2022-11-14T10:02:05.403Z,9.58
2022-11-14T10:03:04.359Z,9.64
2022-11-14T10:04:09.214Z,9.56
2022-11-14T10:05:05.334Z,9.74
2022-11-14T10:06:04.325Z,9.77
2022-11-14T10:07:04.364Z,9.77
2022-11-14T10:08:04.296Z,9.80
2022-11-14T10:09:04.317Z,9.84
2022-11-14T10:10:04.624Z,9.61
2022-11-14T10:11:04.263Z,9.43
2022-11-14T10:12:04.255Z,9.50
2022-11-14T10:13:04.244Z,9.51
2022-11-14T10:14:04.235Z,9.51
2022-11-14T10:15:04.266Z,9.44
2022-11-14T10:16:04.204Z,9.40
2022-11-14T10:17:07.955Z,9.40
2022-11-14T10:18:05.217Z,9.47
2022-11-14T10:19:04.175Z,9.44
2022-11-14T10:20:04.165Z,9.48
2022-11-14T10:21:04.173Z,9.48
2022-11-14T10:22:04.144Z,9.43
2022-11-14T10:23:04.126Z,9.39
2022-11-14T10:24:04.138Z,9.44
2022-11-14T10:25:04.103Z,9.62
2022-11-14T10:26:04.120Z,9.82
2022-11-14T10:27:04.086Z,9.98
2022-11-14T10:28:05.509Z,10.09
2022-11-14T10:29:04.065Z,10.02
2022-11-14T10:30:04.055Z,10.02
2022-11-14T10:31:04.046Z,10.04
2022-11-14T10:32:04.056Z,10.04
2022-11-14T10:33:04.016Z,10.05
2022-11-14T10:34:04.004Z,10.05
2022-11-14T10:35:03.996Z,10.10
2022-11-14T10:36:03.995Z,10.13
2022-11-14T10:37:11.036Z,10.23
2022-11-14T10:38:03.976Z,10.25
2022-11-14T10:39:03.946Z,10.33
2022-11-14T10:40:03.937Z,10.40
2022-11-14T10:41:03.929Z,10.44
2022-11-14T10:42:07.662Z,10.46
2022-11-14T10:43:03.920Z,10.33
2022-11-14T10:44:03.895Z,10.37
2022-11-14T10:45:03.887Z,10.38
2022-11-14T10:46:03.874Z,10.48
2022-11-14T10:47:03.868Z,10.59
2022-11-14T10:48:03.875Z,10.63
2022-11-14T10:49:03.836Z,10.59
2022-11-14T10:50:03.823Z,10.51
2022-11-14T10:51:03.809Z,10.57
2022-11-14T10:52:03.806Z,10.59
2022-11-14T10:53:03.785Z,10.61
2022-11-14T10:54:03.801Z,10.59
2022-11-14T10:55:03.769Z,10.57
2022-11-14T10:56:05.021Z,10.46
2022-11-14T10:57:03.778Z,10.42
2022-11-14T10:58:03.728Z,10.49
2022-11-14T10:59:03.718Z,10.51
2022-11-14T11:00:03.727Z,10.46
2022-11-14T11:01:03.758Z,10.53
2022-11-14T11:02:03.686Z,10.60
2022-11-14T11:03:03.675Z,10.63
2022-11-14T11:04:03.726Z,10.74
2022-11-14T11:05:03.648Z,10.79
2022-11-14T11:06:03.687Z,10.92
2022-11-14T11:07:03.657Z,10.97
2022-11-14T11:08:28.127Z,11.05
2022-11-14T11:09:04.643Z,11.00
2022-11-14T11:10:03.597Z,11.14
2022-11-14T11:11:03.593Z,11.32
2022-11-14T11:12:03.616Z,11.48
2022-11-14T11:13:03.662Z,11.63
2022-11-14T11:14:03.554Z,11.90
2022-11-14T11:15:03.535Z,12.07
2022-11-14T11:16:03.540Z,12.28
2022-11-14T11:17:03.506Z,12.55
2022-11-14T11:18:03.527Z,12.70
2022-11-14T11:19:03.486Z,12.65
2022-11-14T11:20:07.410Z,12.43
2022-11-14T11:21:03.503Z,12.28
2022-11-14T11:22:03.455Z,12.25
2022-11-14T11:23:03.634Z,12.24
2022-11-14T11:24:03.467Z,12.18
2022-11-14T11:25:03.416Z,12.07
2022-11-14T11:26:03.407Z,11.88
2022-11-14T11:27:03.396Z,11.95
2022-11-14T11:28:03.389Z,12.04
2022-11-14T11:29:03.409Z,12.22
2022-11-14T11:30:03.363Z,12.28
2022-11-14T11:31:03.347Z,12.32
2022-11-14T11:32:03.335Z,12.39
2022-11-14T11:33:03.325Z,12.45
2022-11-14T11:34:03.316Z,12.37
2022-11-14T11:35:03.326Z,12.25
2022-11-14T11:36:03.298Z,12.27
2022-11-14T11:37:03.285Z,12.32
2022-11-14T11:38:03.266Z,12.31
2022-11-14T11:39:03.258Z,12.21
2022-11-14T11:40:03.245Z,12.20
2022-11-14T11:41:03.266Z,12.28
2022-11-14T11:42:10.553Z,12.46
2022-11-14T11:44:00.549Z,12.62
2022-11-14T11:44:04.562Z,12.68
2022-11-14T11:45:03.188Z,12.76
2022-11-14T11:46:03.187Z,12.72
2022-11-14T11:47:03.186Z,12.83
2022-11-14T11:48:03.158Z,12.82
2022-11-14T11:49:03.148Z,12.87
2022-11-14T11:50:03.137Z,12.91
2022-11-14T11:51:03.136Z,13.01
2022-11-14T11:52:03.126Z,12.93
2022-11-14T11:53:03.096Z,13.09
2022-11-14T11:54:03.087Z,13.23
2022-11-14T11:55:03.076Z,13.19
2022-11-14T11:56:03.079Z,13.04
2022-11-14T11:57:03.055Z,13.19
2022-11-14T11:58:03.055Z,13.23
2022-11-14T11:59:03.035Z,13.38
2022-11-14T12:00:03.026Z,13.67
2022-11-14T12:01:03.006Z,13.90
2022-11-14T12:02:03.072Z,14.04
2022-11-14T12:03:03.130Z,14.07
2022-11-14T12:04:03.042Z,14.14
2022-11-14T12:05:02.973Z,14.03
2022-11-14T12:06:02.946Z,13.83
2022-11-14T12:07:02.960Z,13.60
2022-11-14T12:08:02.925Z,13.57
2022-11-14T12:09:02.922Z,13.56
2022-11-14T12:10:10.231Z,13.54
2022-11-14T12:11:03.887Z,13.50
2022-11-14T12:12:02.877Z,13.42
2022-11-14T12:13:02.868Z,13.27
2022-11-14T12:14:02.856Z,13.15
2022-11-14T12:15:02.849Z,13.12
2022-11-14T12:16:02.866Z,13.18
2022-11-14T12:17:02.826Z,13.27
2022-11-14T12:18:02.816Z,13.47
2022-11-14T12:19:02.799Z,13.68
2022-11-14T12:20:02.787Z,13.74
2022-11-14T12:21:02.779Z,13.79
2022-11-14T12:22:02.787Z,13.87
2022-11-14T12:23:02.755Z,13.77
2022-11-14T12:24:02.751Z,13.77
2022-11-14T12:25:02.747Z,13.75
2022-11-14T12:26:02.722Z,13.74
2022-11-14T12:27:02.712Z,13.79
2022-11-14T12:28:03.225Z,13.89
2022-11-14T12:29:02.690Z,13.85
2022-11-14T12:30:02.687Z,13.81
2022-11-14T12:31:02.681Z,13.65
2022-11-14T12:32:02.650Z,13.63
2022-11-14T12:33:02.669Z,13.65
2022-11-14T12:34:02.629Z,13.56
2022-11-14T12:35:02.683Z,13.49
2022-11-14T12:36:02.607Z,13.31
2022-11-14T12:37:03.033Z,13.42
2022-11-14T12:38:02.589Z,13.42
2022-11-14T12:39:02.602Z,13.30
2022-11-14T12:40:02.586Z,13.19
2022-11-14T12:41:02.549Z,13.22
2022-11-14T12:42:02.540Z,13.11
2022-11-14T12:43:02.537Z,13.13
2022-11-14T12:44:02.560Z,13.20
2022-11-14T12:45:02.522Z,13.13
2022-11-14T12:46:02.488Z,13.27
2022-11-14T12:47:02.485Z,13.49
2022-11-14T12:48:02.548Z,13.60
2022-11-14T12:49:02.477Z,13.72
2022-11-14T12:50:02.463Z,13.79
2022-11-14T12:51:02.446Z,13.87
2022-11-14T12:52:02.426Z,13.85
2022-11-14T12:53:02.466Z,13.89
2022-11-14T12:54:02.399Z,13.87
2022-11-14T12:55:02.407Z,13.79
2022-11-14T12:56:02.375Z,13.78
2022-11-14T12:57:02.922Z,13.79
2022-11-14T12:58:02.358Z,13.86
2022-11-14T12:59:02.349Z,13.89
2022-11-14T13:00:02.328Z,13.93
2022-11-14T13:01:02.378Z,13.86
2022-11-14T13:02:02.309Z,13.83
2022-11-14T13:03:02.308Z,13.78
2022-11-14T13:04:02.287Z,13.81
2022-11-14T13:05:02.282Z,13.85
2022-11-14T13:06:02.259Z,13.87
2022-11-14T13:07:02.317Z,13.86
2022-11-14T13:08:02.242Z,13.78
2022-11-14T13:09:02.236Z,13.63
2022-11-14T13:10:02.252Z,13.59
2022-11-14T13:11:02.209Z,13.59
2022-11-14T13:12:02.197Z,13.60